Time;durP1;ratioP1;P1;durP2;ratioP2;P2;SDS_P1;SDS_P2;PMS_P1;PMS_P2;Temp;Humidity;BMP_temperature;BMP_pressure;BME280_temperature;BME280_humidity;BME280_pressure;Samples;Min_cycle;Max_cycle;Signal;HPM_P1;HPM_P2
2022/11/29 00:01:57;;;;;;;8.85;6.05;;;;;;;;;;5065642;28;20068;-60
2022/11/29 00:04:23;;;;;;;8.95;6.43;;;;;;;;;;5065674;28;20044;-60
2022/11/29 00:06:49;;;;;;;7.60;5.82;;;;;;;;;;5065695;28;20047;-60
2022/11/29 00:09:15;;;;;;;7.70;5.55;;;;;;;;;;5064788;28;20056;-60
2022/11/29 00:14:46;;;;;;;5.55;4.28;;;;;;;;;;5022931;28;20045;-60
2022/11/29 00:17:12;;;;;;;7.82;6.00;;;;;;;;;;5022485;28;20400;-60
2022/11/29 00:19:38;;;;;;;10.60;7.25;;;;;;;;;;5042119;28;20067;-60
2022/11/29 00:22:04;;;;;;;8.25;5.65;;;;;;;;;;5066023;28;20384;-60
2022/11/29 00:24:31;;;;;;;8.10;5.88;;;;;;;;;;5063925;28;20510;-60
2022/11/29 00:26:57;;;;;;;5.72;4.57;;;;;;;;;;5064238;28;20478;-60
2022/11/29 00:29:23;;;;;;;6.38;4.95;;;;;;;;;;5065406;28;20526;-60
2022/11/29 00:31:49;;;;;;;6.47;4.93;;;;;;;;;;5065101;28;20040;-60
2022/11/29 00:34:15;;;;;;;5.80;4.32;;;;;;;;;;5062347;28;20344;-60
2022/11/29 00:36:41;;;;;;;5.93;4.55;;;;;;;;;;5065872;28;20041;-60
2022/11/29 00:39:10;;;;;;;7.28;5.47;;;;;;;;;;5065008;28;20075;-60
2022/11/29 00:41:36;;;;;;;6.25;4.93;;;;;;;;;;5097690;28;20124;-60
2022/11/29 00:44:02;;;;;;;7.07;5.22;;;;;;;;;;5064609;28;20044;-60
2022/11/29 00:46:28;;;;;;;5.20;4.38;;;;;;;;;;5064706;28;20051;-60
2022/11/29 00:48:54;;;;;;;6.72;5.13;;;;;;;;;;5065250;28;20063;-60
2022/11/29 00:51:20;;;;;;;5.53;3.92;;;;;;;;;;5064497;28;20835;-60
2022/11/29 00:53:46;;;;;;;4.88;4.15;;;;;;;;;;5063492;28;20040;-60
2022/11/29 00:56:12;;;;;;;6.28;4.70;;;;;;;;;;5064817;28;20037;-61
2022/11/29 00:58:38;;;;;;;7.10;5.30;;;;;;;;;;5062897;28;20047;-60
2022/11/29 01:01:04;;;;;;;6.45;5.45;;;;;;;;;;5065639;28;20041;-60
2022/11/29 01:03:30;;;;;;;10.70;5.53;;;;;;;;;;5064431;28;20819;-60
2022/11/29 01:06:04;;;;;;;6.68;5.43;;;;;;;;;;5064198;28;20041;-61
2022/11/29 01:08:30;;;;;;;8.45;5.22;;;;;;;;;;5064445;28;20491;-61
2022/11/29 01:11:07;;;;;;;6.40;5.07;;;;;;;;;;5065161;28;20098;-61
2022/11/29 01:13:33;;;;;;;4.85;4.35;;;;;;;;;;5063700;28;20044;-60
2022/11/29 01:15:59;;;;;;;7.32;5.57;;;;;;;;;;5065135;28;20467;-60
2022/11/29 01:18:25;;;;;;;6.93;5.43;;;;;;;;;;5064718;28;20149;-60
2022/11/29 01:20:56;;;;;;;5.28;4.25;;;;;;;;;;5065687;28;20067;-60
2022/11/29 01:23:22;;;;;;;4.30;3.55;;;;;;;;;;5065043;28;20052;-60
2022/11/29 01:25:55;;;;;;;4.50;3.55;;;;;;;;;;5064440;28;20050;-60
2022/11/29 01:28:21;;;;;;;3.33;2.50;;;;;;;;;;5063726;28;20048;-60
2022/11/29 01:30:47;;;;;;;2.83;2.55;;;;;;;;;;5065211;28;20611;-60
2022/11/29 01:33:13;;;;;;;3.13;2.72;;;;;;;;;;5064652;28;20040;-60
2022/11/29 01:35:39;;;;;;;3.20;2.90;;;;;;;;;;5064812;28;20530;-60
2022/11/29 01:38:05;;;;;;;4.68;3.45;;;;;;;;;;5064984;28;20043;-60
2022/11/29 01:40:31;;;;;;;3.72;2.85;;;;;;;;;;5063565;28;20588;-60
2022/11/29 01:42:57;;;;;;;3.58;3.28;;;;;;;;;;5065089;28;20148;-60
2022/11/29 01:45:24;;;;;;;5.82;4.00;;;;;;;;;;5064400;28;20075;-61
2022/11/29 01:47:52;;;;;;;4.95;4.45;;;;;;;;;;5064302;28;20075;-61
2022/11/29 01:50:18;;;;;;;5.70;4.60;;;;;;;;;;5061606;28;20090;-60
2022/11/29 01:52:45;;;;;;;4.07;3.65;;;;;;;;;;5065338;28;20587;-60
2022/11/29 01:55:11;;;;;;;5.15;3.80;;;;;;;;;;5064057;28;20495;-60
2022/11/29 01:57:39;;;;;;;4.90;4.30;;;;;;;;;;5066466;28;20044;-60
2022/11/29 02:00:10;;;;;;;6.05;5.25;;;;;;;;;;5065389;28;20052;-61
2022/11/29 02:02:39;;;;;;;6.13;5.53;;;;;;;;;;5064503;28;20124;-60
2022/11/29 02:05:06;;;;;;;9.18;6.22;;;;;;;;;;5067152;28;20071;-60
2022/11/29 02:07:32;;;;;;;9.23;7.07;;;;;;;;;;5068649;28;20732;-60
2022/11/29 02:09:58;;;;;;;7.18;6.30;;;;;;;;;;5069117;28;20041;-60
2022/11/29 02:12:36;;;;;;;6.72;6.00;;;;;;;;;;5068640;28;20049;-60
2022/11/29 02:15:14;;;;;;;6.15;5.22;;;;;;;;;;5068450;28;20045;-61
2022/11/29 02:17:40;;;;;;;6.10;5.45;;;;;;;;;;5068001;28;20040;-60
2022/11/29 02:20:22;;;;;;;5.45;4.63;;;;;;;;;;5066380;28;20438;-60
2022/11/29 02:22:54;;;;;;;4.72;4.18;;;;;;;;;;5067457;28;20824;-60
2022/11/29 02:25:29;;;;;;;5.10;3.97;;;;;;;;;;5068538;28;20053;-60
2022/11/29 02:28:14;;;;;;;3.47;2.95;;;;;;;;;;5068662;28;20131;-61
2022/11/29 02:31:02;;;;;;;3.28;2.97;;;;;;;;;;5067667;28;20063;-60
2022/11/29 02:33:34;;;;;;;3.03;2.55;;;;;;;;;;5068012;28;20052;-60
2022/11/29 02:36:06;;;;;;;2.10;1.95;;;;;;;;;;5068151;28;20569;-60
2022/11/29 02:38:47;;;;;;;2.80;2.53;;;;;;;;;;5065461;28;20055;-60
2022/11/29 02:41:32;;;;;;;2.92;2.58;;;;;;;;;;5068030;28;20052;-60
2022/11/29 02:44:01;;;;;;;2.65;2.45;;;;;;;;;;5066882;28;20609;-60
2022/11/29 02:46:38;;;;;;;3.30;2.67;;;;;;;;;;5064932;28;20037;-60
2022/11/29 02:49:14;;;;;;;4.38;3.95;;;;;;;;;;5067111;28;20075;-61
2022/11/29 02:51:45;;;;;;;3.28;2.95;;;;;;;;;;5067567;28;20051;-60
2022/11/29 02:54:23;;;;;;;2.55;2.25;;;;;;;;;;5067823;28;20517;-60
2022/11/29 02:57:01;;;;;;;3.20;2.90;;;;;;;;;;5066104;28;20072;-60
2022/11/29 02:59:27;;;;;;;2.53;2.33;;;;;;;;;;5064868;28;20044;-60
2022/11/29 03:01:59;;;;;;;3.17;2.88;;;;;;;;;;5068414;28;20094;-60
2022/11/29 03:04:30;;;;;;;2.83;2.50;;;;;;;;;;5065902;28;20052;-60
2022/11/29 03:06:58;;;;;;;3.05;2.75;;;;;;;;;;5067151;28;20055;-60
2022/11/29 03:09:27;;;;;;;2.67;2.47;;;;;;;;;;5065510;28;20079;-61
2022/11/29 03:12:12;;;;;;;3.78;2.88;;;;;;;;;;5067180;28;20132;-60
2022/11/29 03:14:45;;;;;;;4.07;3.08;;;;;;;;;;5067311;28;20041;-60
2022/11/29 03:17:23;;;;;;;4.07;3.67;;;;;;;;;;5063508;28;20068;-60
2022/11/29 03:19:49;;;;;;;3.85;3.53;;;;;;;;;;5060423;28;20044;-60
2022/11/29 03:22:29;;;;;;;4.47;3.70;;;;;;;;;;5067341;28;20045;-60
2022/11/29 03:25:01;;;;;;;3.80;3.42;;;;;;;;;;5065452;28;20040;-60
2022/11/29 03:27:35;;;;;;;4.80;4.30;;;;;;;;;;5063971;28;20050;-60
2022/11/29 03:30:04;;;;;;;5.05;4.47;;;;;;;;;;5064915;28;20123;-60
2022/11/29 03:32:45;;;;;;;4.90;4.40;;;;;;;;;;5066867;28;20052;-60
2022/11/29 03:35:17;;;;;;;4.57;3.97;;;;;;;;;;5066979;28;20133;-60
2022/11/29 03:38:06;;;;;;;7.25;4.28;;;;;;;;;;5065240;28;20044;-60
2022/11/29 03:40:47;;;;;;;4.07;3.67;;;;;;;;;;5056352;28;20048;-59
2022/11/29 03:43:19;;;;;;;2.88;2.67;;;;;;;;;;5064803;28;20526;-60
2022/11/29 03:45:50;;;;;;;2.60;2.38;;;;;;;;;;5065184;28;20040;-60
2022/11/29 03:48:18;;;;;;;5.30;3.47;;;;;;;;;;5066011;28;20495;-61
2022/11/29 03:50:49;;;;;;;2.78;2.58;;;;;;;;;;5067553;28;20035;-60
2022/11/29 03:53:33;;;;;;;2.60;2.40;;;;;;;;;;5067154;28;20301;-60
2022/11/29 03:56:04;;;;;;;3.50;3.20;;;;;;;;;;5065836;28;20050;-60
2022/11/29 03:58:34;;;;;;;4.03;3.50;;;;;;;;;;5066663;28;20173;-60
2022/11/29 04:01:08;;;;;;;4.10;3.40;;;;;;;;;;5066583;28;20127;-60
2022/11/29 04:03:40;;;;;;;3.35;3.05;;;;;;;;;;5066717;28;20036;-60
2022/11/29 04:06:15;;;;;;;3.20;2.90;;;;;;;;;;5062406;28;20054;-60
2022/11/29 04:08:49;;;;;;;3.78;3.38;;;;;;;;;;5065858;28;20491;-60
2022/11/29 04:11:30;;;;;;;3.97;3.33;;;;;;;;;;5066789;28;20959;-60
2022/11/29 04:14:15;;;;;;;3.13;2.83;;;;;;;;;;5065099;28;20515;-60
2022/11/29 04:17:01;;;;;;;4.20;3.75;;;;;;;;;;5065583;28;20118;-60
2022/11/29 04:19:46;;;;;;;5.55;4.78;;;;;;;;;;5066353;28;20041;-60
2022/11/29 04:22:34;;;;;;;4.50;4.10;;;;;;;;;;5063142;28;20040;-61
2022/11/29 04:25:20;;;;;;;4.85;4.13;;;;;;;;;;5061033;28;20051;-60
2022/11/29 04:27:48;;;;;;;3.60;3.30;;;;;;;;;;5063345;28;20513;-60
2022/11/29 04:30:23;;;;;;;4.22;3.83;;;;;;;;;;5066181;28;20044;-60
2022/11/29 04:33:01;;;;;;;3.47;3.17;;;;;;;;;;5065179;28;20037;-59
2022/11/29 04:35:47;;;;;;;3.40;3.10;;;;;;;;;;5063980;28;20045;-60
2022/11/29 04:38:31;;;;;;;3.67;3.35;;;;;;;;;;5064555;28;20495;-60
2022/11/29 04:41:12;;;;;;;2.92;2.72;;;;;;;;;;5066447;28;20040;-60
2022/11/29 04:43:48;;;;;;;3.30;3.00;;;;;;;;;;5065182;28;20375;-60
2022/11/29 04:46:24;;;;;;;3.85;3.55;;;;;;;;;;5064732;28;20632;-60
2022/11/29 04:49:06;;;;;;;3.83;3.40;;;;;;;;;;5064992;28;20491;-60
2022/11/29 04:51:43;;;;;;;4.05;3.58;;;;;;;;;;5064781;28;20048;-60
2022/11/29 04:54:15;;;;;;;4.03;3.72;;;;;;;;;;5064932;28;20040;-60
2022/11/29 04:56:47;;;;;;;4.40;3.97;;;;;;;;;;5066213;28;20131;-60
2022/11/29 04:59:18;;;;;;;4.40;4.00;;;;;;;;;;5065429;28;20052;-60
2022/11/29 05:01:53;;;;;;;3.80;3.50;;;;;;;;;;5066436;28;20119;-60
2022/11/29 05:04:38;;;;;;;3.40;3.10;;;;;;;;;;5063627;28;20052;-60
2022/11/29 05:07:07;;;;;;;2.45;2.25;;;;;;;;;;5066226;28;20044;-60
2022/11/29 05:09:39;;;;;;;3.08;2.78;;;;;;;;;;5065308;28;20498;-60
2022/11/29 05:12:11;;;;;;;3.63;3.33;;;;;;;;;;5062525;28;20068;-60
2022/11/29 05:14:44;;;;;;;3.20;2.90;;;;;;;;;;5065607;28;20048;-60
2022/11/29 05:17:13;;;;;;;4.95;3.38;;;;;;;;;;5061765;28;20506;-60
2022/11/29 05:19:51;;;;;;;3.13;2.83;;;;;;;;;;5064881;28;20502;-60
2022/11/29 05:22:36;;;;;;;3.67;3.30;;;;;;;;;;5063587;28;20181;-60
2022/11/29 05:25:02;;;;;;;2.42;2.22;;;;;;;;;;5065710;28;20045;-60
2022/11/29 05:27:31;;;;;;;2.20;2.00;;;;;;;;;;5065054;28;20048;-59
2022/11/29 05:30:02;;;;;;;2.50;2.30;;;;;;;;;;5065913;28;20094;-61
2022/11/29 05:32:37;;;;;;;2.38;2.17;;;;;;;;;;5064329;28;20040;-60
2022/11/29 05:35:21;;;;;;;2.53;2.33;;;;;;;;;;5065700;28;20044;-60
2022/11/29 05:38:02;;;;;;;4.35;3.17;;;;;;;;;;5065556;28;20106;-60
2022/11/29 05:40:47;;;;;;;2.90;2.60;;;;;;;;;;5068504;28;20048;-60
2022/11/29 05:43:32;;;;;;;3.72;2.72;;;;;;;;;;5066025;28;20044;-60
2022/11/29 05:46:11;;;;;;;2.88;2.67;;;;;;;;;;5063513;28;20048;-60
2022/11/29 05:48:44;;;;;;;3.33;3.03;;;;;;;;;;5068118;28;20087;-60
2022/11/29 05:51:12;;;;;;;3.88;3.58;;;;;;;;;;5069337;28;20133;-60
2022/11/29 05:53:43;;;;;;;4.35;3.95;;;;;;;;;;5068484;28;20052;-60
2022/11/29 05:56:23;;;;;;;3.83;3.53;;;;;;;;;;5068976;28;20510;-60
2022/11/29 05:58:51;;;;;;;4.82;4.43;;;;;;;;;;5069678;28;20047;-60
2022/11/29 06:01:22;;;;;;;5.75;4.68;;;;;;;;;;5068299;28;20044;-60
2022/11/29 06:04:03;;;;;;;4.70;4.30;;;;;;;;;;5072413;28;20049;-60
2022/11/29 06:06:38;;;;;;;5.50;4.72;;;;;;;;;;5067541;28;20076;-60
2022/11/29 06:09:13;;;;;;;5.03;4.38;;;;;;;;;;5068244;28;20494;-60
2022/11/29 06:11:48;;;;;;;4.47;4.07;;;;;;;;;;5067965;28;20135;-60
2022/11/29 06:14:44;;;;;;;4.20;3.65;;;;;;;;;;5068856;28;20408;-60
2022/11/29 06:17:31;;;;;;;5.47;3.67;;;;;;;;;;5068832;28;20049;-60
2022/11/29 06:19:58;;;;;;;4.55;4.15;;;;;;;;;;5068094;28;20135;-60
2022/11/29 06:22:31;;;;;;;5.28;4.78;;;;;;;;;;5067705;28;20128;-60
2022/11/29 06:25:11;;;;;;;4.55;4.15;;;;;;;;;;5067906;28;20040;-60
2022/11/29 06:27:43;;;;;;;4.72;4.32;;;;;;;;;;5068039;28;20059;-60
2022/11/29 06:30:19;;;;;;;4.43;3.90;;;;;;;;;;5067411;28;20048;-60
2022/11/29 06:32:51;;;;;;;4.70;4.05;;;;;;;;;;5068374;28;20075;-60
2022/11/29 06:35:34;;;;;;;4.78;4.38;;;;;;;;;;5068459;28;20141;-60
2022/11/29 06:38:14;;;;;;;5.47;4.78;;;;;;;;;;5071622;28;20051;-60
2022/11/29 06:40:40;;;;;;;6.03;4.28;;;;;;;;;;5068140;28;20133;-60
2022/11/29 06:43:06;;;;;;;3.80;3.47;;;;;;;;;;5067840;28;20125;-60
2022/11/29 06:45:32;;;;;;;3.78;3.20;;;;;;;;;;5067401;28;20068;-60
2022/11/29 06:48:02;;;;;;;3.70;2.70;;;;;;;;;;5068159;28;20051;-60
2022/11/29 06:50:28;;;;;;;2.55;2.30;;;;;;;;;;5069351;28;20040;-60
2022/11/29 06:53:02;;;;;;;2.50;2.33;;;;;;;;;;5068438;28;20400;-60
2022/11/29 06:55:31;;;;;;;2.42;2.20;;;;;;;;;;5066178;28;20051;-60
2022/11/29 06:58:06;;;;;;;2.40;2.20;;;;;;;;;;5067537;28;20032;-60
2022/11/29 07:00:39;;;;;;;2.88;2.58;;;;;;;;;;5067443;28;20040;-60
2022/11/29 07:03:16;;;;;;;2.55;2.35;;;;;;;;;;5066326;28;20049;-60
2022/11/29 07:05:42;;;;;;;2.33;2.13;;;;;;;;;;5067231;28;20483;-60
2022/11/29 07:08:14;;;;;;;2.63;2.42;;;;;;;;;;5063294;28;20120;-60
2022/11/29 07:10:40;;;;;;;3.63;2.22;;;;;;;;;;5067291;28;20049;-60
2022/11/29 07:13:07;;;;;;;2.92;2.20;;;;;;;;;;5067192;28;20045;-60
2022/11/29 07:15:35;;;;;;;2.28;2.05;;;;;;;;;;5067087;28;20507;-60
2022/11/29 07:18:10;;;;;;;3.15;2.42;;;;;;;;;;5067000;28;20049;-61
2022/11/29 07:20:36;;;;;;;2.47;2.28;;;;;;;;;;5067365;28;20052;-60
2022/11/29 07:23:13;;;;;;;3.03;2.47;;;;;;;;;;5067161;28;20057;-60
2022/11/29 07:25:54;;;;;;;4.72;2.83;;;;;;;;;;5066442;28;20044;-60
2022/11/29 07:28:29;;;;;;;2.40;2.20;;;;;;;;;;5066801;28;20044;-60
2022/11/29 07:31:14;;;;;;;2.90;2.20;;;;;;;;;;5066844;28;20785;-60
2022/11/29 07:33:40;;;;;;;3.38;2.20;;;;;;;;;;5066518;28;20036;-60
2022/11/29 07:36:06;;;;;;;2.80;1.75;;;;;;;;;;5067302;28;20079;-60
2022/11/29 07:38:38;;;;;;;3.08;2.25;;;;;;;;;;5066776;28;20068;-60
2022/11/29 07:41:05;;;;;;;3.03;2.30;;;;;;;;;;5065033;28;20048;-60
2022/11/29 07:43:30;;;;;;;4.72;2.95;;;;;;;;;;5066559;28;20075;-60
2022/11/29 07:45:57;;;;;;;3.75;2.67;;;;;;;;;;5067257;28;20036;-60
2022/11/29 07:48:23;;;;;;;4.90;3.50;;;;;;;;;;5066315;28;20048;-60
2022/11/29 07:50:49;;;;;;;4.22;2.95;;;;;;;;;;5067079;28;20399;-59
2022/11/29 07:53:16;;;;;;;4.05;2.92;;;;;;;;;;5066183;28;20048;-60
2022/11/29 07:55:42;;;;;;;3.13;2.83;;;;;;;;;;5067319;28;20048;-60
2022/11/29 07:58:11;;;;;;;3.03;2.63;;;;;;;;;;5067009;28;20115;-60
2022/11/29 08:00:38;;;;;;;3.13;2.83;;;;;;;;;;5074518;28;20213;-60
2022/11/29 08:03:04;;;;;;;3.25;3.00;;;;;;;;;;5066289;28;20033;-60
2022/11/29 08:05:30;;;;;;;3.38;2.40;;;;;;;;;;5066137;28;20131;-60
2022/11/29 08:07:56;;;;;;;5.43;3.72;;;;;;;;;;5065695;28;20182;-60
2022/11/29 08:10:22;;;;;;;4.63;3.05;;;;;;;;;;5066233;28;20499;-60
2022/11/29 08:12:49;;;;;;;3.67;3.30;;;;;;;;;;5066853;28;20725;-60
2022/11/29 08:15:16;;;;;;;3.30;3.00;;;;;;;;;;5066040;28;20056;-60
2022/11/29 08:17:42;;;;;;;2.60;2.40;;;;;;;;;;5066593;28;20048;-60
2022/11/29 08:20:08;;;;;;;5.60;3.67;;;;;;;;;;5098978;28;20049;-60
2022/11/29 08:22:34;;;;;;;4.03;3.38;;;;;;;;;;5065871;28;20041;-60
2022/11/29 08:25:01;;;;;;;3.72;3.17;;;;;;;;;;5066334;28;20063;-60
2022/11/29 08:27:27;;;;;;;2.58;2.33;;;;;;;;;;5065728;28;20135;-60
2022/11/29 08:29:53;;;;;;;2.85;2.63;;;;;;;;;;5078869;28;20499;-55
2022/11/29 08:32:19;;;;;;;3.80;3.05;;;;;;;;;;5086913;28;20045;-56
2022/11/29 08:34:45;;;;;;;6.07;3.38;;;;;;;;;;5087398;28;20048;-60
2022/11/29 08:37:11;;;;;;;4.22;2.78;;;;;;;;;;5086454;28;20036;-63
2022/11/29 08:39:37;;;;;;;3.05;2.50;;;;;;;;;;5087241;28;20073;-57
2022/11/29 08:42:03;;;;;;;3.25;2.60;;;;;;;;;;5087213;28;20048;-57
2022/11/29 08:44:29;;;;;;;4.72;2.88;;;;;;;;;;5085847;28;20452;-57
2022/11/29 08:50:00;;;;;;;8.52;3.75;;;;;;;;;;5086671;28;20044;-58
2022/11/29 08:55:10;;;;;;;5.30;3.55;;;;;;;;;;5075251;28;20048;-58
2022/11/29 08:57:37;;;;;;;3.95;3.58;;;;;;;;;;5064648;28;20117;-57
2022/11/29 09:00:04;;;;;;;4.43;3.38;;;;;;;;;;5065623;28;20450;-58
2022/11/29 09:02:30;;;;;;;3.20;2.90;;;;;;;;;;5066461;28;20037;-58
2022/11/29 09:04:56;;;;;;;3.95;2.65;;;;;;;;;;5065293;28;20426;-57
2022/11/29 09:07:22;;;;;;;2.63;2.20;;;;;;;;;;5066302;28;20041;-57
2022/11/29 09:09:48;;;;;;;2.88;1.90;;;;;;;;;;5066537;28;20055;-57
2022/11/29 09:12:14;;;;;;;2.25;1.55;;;;;;;;;;5064370;28;20044;-57
2022/11/29 09:14:40;;;;;;;2.40;1.90;;;;;;;;;;5064549;28;20178;-57
2022/11/29 09:17:06;;;;;;;2.30;2.10;;;;;;;;;;5065008;28;20586;-57
2022/11/29 09:19:32;;;;;;;2.45;2.00;;;;;;;;;;5064130;28;20040;-57
2022/11/29 09:21:58;;;;;;;1.85;1.58;;;;;;;;;;5062894;28;20090;-57
2022/11/29 09:24:24;;;;;;;2.03;1.65;;;;;;;;;;5066303;28;20047;-57
2022/11/29 09:26:50;;;;;;;3.28;1.80;;;;;;;;;;5064702;28;20076;-57
2022/11/29 09:29:16;;;;;;;2.78;2.28;;;;;;;;;;5065646;28;20102;-57
2022/11/29 09:31:44;;;;;;;2.03;1.83;;;;;;;;;;5065870;28;20505;-58
2022/11/29 09:34:13;;;;;;;2.17;1.65;;;;;;;;;;5066045;28;20106;-57
2022/11/29 09:36:39;;;;;;;2.00;1.40;;;;;;;;;;5066232;28;20072;-57
2022/11/29 09:39:05;;;;;;;2.85;1.20;;;;;;;;;;5065441;28;20059;-57
2022/11/29 09:41:35;;;;;;;1.65;1.55;;;;;;;;;;5056227;28;20546;-57
2022/11/29 09:44:04;;;;;;;2.90;1.50;;;;;;;;;;5065282;28;20097;-57
2022/11/29 09:46:45;;;;;;;1.65;1.55;;;;;;;;;;5085288;28;20681;-57
2022/11/29 09:49:13;;;;;;;2.78;1.55;;;;;;;;;;5085877;28;20511;-57
2022/11/29 09:51:39;;;;;;;1.70;1.60;;;;;;;;;;5086164;28;20044;-58
2022/11/29 09:54:14;;;;;;;1.45;1.35;;;;;;;;;;5085392;28;20067;-58
2022/11/29 09:56:45;;;;;;;1.80;1.70;;;;;;;;;;5086275;28;20045;-57
2022/11/29 09:59:24;;;;;;;1.92;1.17;;;;;;;;;;5086217;28;20644;-58
2022/11/29 10:01:56;;;;;;;2.00;1.80;;;;;;;;;;5085782;28;20048;-58
2022/11/29 10:04:25;;;;;;;1.30;1.20;;;;;;;;;;5085777;28;20036;-58
2022/11/29 10:06:57;;;;;;;1.05;0.98;;;;;;;;;;5085734;28;20040;-57
2022/11/29 10:09:26;;;;;;;0.82;0.82;;;;;;;;;;5086451;28;20058;-57
2022/11/29 10:12:10;;;;;;;3.03;1.65;;;;;;;;;;5086229;28;20105;-57
2022/11/29 10:14:49;;;;;;;1.85;1.17;;;;;;;;;;5085418;28;20510;-58
2022/11/29 10:17:29;;;;;;;2.88;1.50;;;;;;;;;;5050921;28;20419;-57
2022/11/29 10:19:58;;;;;;;4.07;1.67;;;;;;;;;;5063997;28;20071;-57
2022/11/29 10:22:35;;;;;;;1.33;1.00;;;;;;;;;;5064181;28;20048;-57
2022/11/29 10:25:02;;;;;;;1.42;0.93;;;;;;;;;;5065776;28;20403;-58
2022/11/29 10:27:28;;;;;;;0.70;0.70;;;;;;;;;;5068742;28;20068;-58
2022/11/29 10:29:55;;;;;;;0.60;0.60;;;;;;;;;;5068884;28;20040;-58
2022/11/29 10:32:22;;;;;;;0.80;0.68;;;;;;;;;;5069194;28;20041;-58
2022/11/29 10:34:49;;;;;;;0.65;0.52;;;;;;;;;;5068212;28;20041;-57
2022/11/29 10:37:19;;;;;;;1.40;0.77;;;;;;;;;;5061737;28;20047;-57
2022/11/29 10:39:45;;;;;;;0.55;0.50;;;;;;;;;;5050412;28;20072;-57
2022/11/29 10:45:01;;;;;;;0.65;0.50;;;;;;;;;;5053059;28;20048;-58
2022/11/29 10:47:27;;;;;;;0.30;0.30;;;;;;;;;;5057616;28;20380;-57
2022/11/29 10:49:53;;;;;;;0.43;0.43;;;;;;;;;;5068487;28;20067;-57
2022/11/29 10:52:21;;;;;;;0.40;0.35;;;;;;;;;;5057843;28;20491;-57
2022/11/29 10:54:48;;;;;;;0.80;0.80;;;;;;;;;;5066632;28;20529;-57
2022/11/29 10:57:15;;;;;;;1.40;1.30;;;;;;;;;;5057126;28;20137;-58
2022/11/29 10:59:41;;;;;;;1.20;1.10;;;;;;;;;;5049349;28;20041;-57
2022/11/29 11:02:17;;;;;;;1.80;1.70;;;;;;;;;;5059407;28;20138;-58
2022/11/29 11:04:45;;;;;;;2.20;1.60;;;;;;;;;;5073458;28;20079;-57
2022/11/29 11:07:22;;;;;;;2.10;1.77;;;;;;;;;;5088440;28;20169;-56
2022/11/29 11:09:49;;;;;;;1.88;1.60;;;;;;;;;;5064725;28;20069;-57
2022/11/29 11:12:15;;;;;;;1.52;1.42;;;;;;;;;;5063791;28;20229;-57
2022/11/29 11:14:42;;;;;;;1.98;1.88;;;;;;;;;;5080867;28;20143;-58
2022/11/29 11:17:22;;;;;;;2.22;1.60;;;;;;;;;;5071515;28;20040;-57
2022/11/29 11:19:59;;;;;;;2.53;2.20;;;;;;;;;;5062522;28;20122;-57
2022/11/29 11:22:26;;;;;;;3.38;3.08;;;;;;;;;;5058900;28;20274;-56
2022/11/29 11:25:00;;;;;;;3.25;2.65;;;;;;;;;;5059662;28;20079;-58
2022/11/29 11:27:40;;;;;;;3.15;2.40;;;;;;;;;;5061472;28;20529;-57
2022/11/29 11:30:07;;;;;;;7.30;3.60;;;;;;;;;;5055102;28;20143;-57
2022/11/29 11:32:33;;;;;;;3.50;3.22;;;;;;;;;;5064273;28;20037;-57
2022/11/29 11:35:00;;;;;;;2.72;2.53;;;;;;;;;;5066225;28;20055;-57
2022/11/29 11:37:34;;;;;;;9.73;4.05;;;;;;;;;;5065502;28;20483;-57
2022/11/29 11:40:17;;;;;;;5.45;3.88;;;;;;;;;;5063317;28;20048;-57
2022/11/29 11:42:44;;;;;;;5.30;3.95;;;;;;;;;;5053405;28;20045;-57
2022/11/29 11:45:10;;;;;;;7.68;4.60;;;;;;;;;;5066204;28;20049;-58
2022/11/29 11:47:37;;;;;;;4.22;3.50;;;;;;;;;;5066965;28;20215;-57
2022/11/29 11:50:05;;;;;;;4.22;3.83;;;;;;;;;;5067105;28;20049;-57
2022/11/29 11:52:35;;;;;;;4.18;3.63;;;;;;;;;;5062176;28;20050;-57
2022/11/29 11:55:04;;;;;;;7.40;4.97;;;;;;;;;;5064972;28;20475;-57
2022/11/29 11:57:30;;;;;;;4.07;3.60;;;;;;;;;;5061940;28;20550;-58
2022/11/29 11:59:57;;;;;;;4.28;3.58;;;;;;;;;;5061783;28;20395;-58
2022/11/29 12:02:36;;;;;;;3.92;3.53;;;;;;;;;;5064156;28;20087;-57
2022/11/29 12:05:04;;;;;;;3.65;3.20;;;;;;;;;;5064729;28;20066;-57
2022/11/29 12:07:32;;;;;;;2.90;2.70;;;;;;;;;;5064784;28;20376;-57
2022/11/29 12:10:05;;;;;;;3.45;3.13;;;;;;;;;;5059138;28;20052;-57
2022/11/29 12:12:38;;;;;;;2.80;2.60;;;;;;;;;;5063881;28;20056;-57
2022/11/29 12:15:10;;;;;;;3.05;2.70;;;;;;;;;;5071706;28;20040;-58
2022/11/29 12:17:48;;;;;;;2.22;2.03;;;;;;;;;;5062229;28;20075;-57
2022/11/29 12:20:21;;;;;;;2.03;1.83;;;;;;;;;;5065607;28;20083;-57
2022/11/29 12:22:58;;;;;;;2.55;2.35;;;;;;;;;;5078585;28;20461;-57
2022/11/29 12:25:26;;;;;;;3.42;3.13;;;;;;;;;;5067821;28;20045;-57
2022/11/29 12:27:52;;;;;;;3.60;3.13;;;;;;;;;;5065366;28;20036;-57
2022/11/29 12:30:18;;;;;;;5.30;3.28;;;;;;;;;;5065497;28;20090;-56
2022/11/29 12:33:03;;;;;;;3.10;2.75;;;;;;;;;;5073052;28;20063;-57
2022/11/29 12:35:33;;;;;;;3.60;3.33;;;;;;;;;;5064576;28;20086;-58
2022/11/29 12:38:22;;;;;;;3.58;3.28;;;;;;;;;;5070688;28;20059;-58
2022/11/29 12:41:02;;;;;;;2.80;2.60;;;;;;;;;;5064118;28;20364;-57
2022/11/29 12:43:46;;;;;;;3.47;3.28;;;;;;;;;;5069347;28;20040;-57
2022/11/29 12:46:20;;;;;;;2.95;2.75;;;;;;;;;;5065878;28;20033;-57
2022/11/29 12:48:58;;;;;;;2.50;2.30;;;;;;;;;;5067037;28;20663;-57
2022/11/29 12:51:27;;;;;;;2.30;2.20;;;;;;;;;;5058169;28;20043;-58
2022/11/29 12:54:12;;;;;;;3.47;3.17;;;;;;;;;;5056767;28;20063;-58
2022/11/29 12:56:47;;;;;;;3.00;2.70;;;;;;;;;;5063551;28;20048;-57
2022/11/29 12:59:36;;;;;;;3.85;3.58;;;;;;;;;;5062321;28;20058;-57
2022/11/29 13:02:21;;;;;;;4.50;4.10;;;;;;;;;;5060791;28;20564;-58
2022/11/29 13:04:47;;;;;;;4.28;3.97;;;;;;;;;;5061606;28;20044;-58
2022/11/29 13:07:32;;;;;;;6.15;5.43;;;;;;;;;;5071186;28;20276;-58
2022/11/29 13:10:03;;;;;;;6.82;6.22;;;;;;;;;;5062201;28;20512;-58
2022/11/29 13:12:32;;;;;;;7.25;6.55;;;;;;;;;;5064407;28;20052;-57
2022/11/29 13:15:19;;;;;;;7.43;6.72;;;;;;;;;;5065353;28;20066;-58
2022/11/29 13:17:45;;;;;;;7.75;6.65;;;;;;;;;;5063068;28;20052;-58
2022/11/29 13:20:25;;;;;;;8.20;7.40;;;;;;;;;;5057989;28;20082;-58
2022/11/29 13:22:51;;;;;;;7.43;6.82;;;;;;;;;;5065522;28;20111;-59
2022/11/29 13:25:20;;;;;;;7.00;6.40;;;;;;;;;;5056801;28;20048;-58
2022/11/29 13:28:09;;;;;;;6.00;5.50;;;;;;;;;;5064121;28;20052;-58
2022/11/29 13:30:36;;;;;;;5.55;5.05;;;;;;;;;;5043647;28;20067;-58
2022/11/29 13:33:12;;;;;;;5.93;5.38;;;;;;;;;;5064504;28;20106;-58
2022/11/29 13:35:38;;;;;;;6.75;6.13;;;;;;;;;;5063897;28;20106;-57
2022/11/29 13:38:12;;;;;;;6.20;5.70;;;;;;;;;;5063660;28;20045;-57
2022/11/29 13:40:51;;;;;;;7.03;6.43;;;;;;;;;;5061964;28;20094;-57
2022/11/29 13:43:22;;;;;;;6.45;5.88;;;;;;;;;;5060567;28;20052;-58
2022/11/29 13:46:09;;;;;;;6.82;6.22;;;;;;;;;;5060114;28;20503;-57
2022/11/29 13:48:49;;;;;;;6.68;6.07;;;;;;;;;;5065261;28;20062;-58
2022/11/29 13:51:21;;;;;;;4.95;4.55;;;;;;;;;;5065163;28;20045;-58
2022/11/29 13:53:47;;;;;;;6.20;5.60;;;;;;;;;;5060748;28;20044;-57
2022/11/29 13:56:31;;;;;;;5.55;5.05;;;;;;;;;;5072119;28;20557;-58
2022/11/29 13:58:59;;;;;;;5.80;5.00;;;;;;;;;;5063592;28;20112;-57
2022/11/29 14:01:26;;;;;;;4.45;4.15;;;;;;;;;;5066935;28;20040;-57
2022/11/29 14:04:01;;;;;;;4.05;3.75;;;;;;;;;;5067911;28;20048;-57
2022/11/29 14:06:37;;;;;;;3.38;3.17;;;;;;;;;;5071542;28;20079;-57
2022/11/29 14:09:22;;;;;;;3.72;3.42;;;;;;;;;;5073726;28;20588;-57
2022/11/29 14:12:11;;;;;;;2.85;2.65;;;;;;;;;;5059847;28;20107;-57
2022/11/29 14:14:52;;;;;;;3.20;2.80;;;;;;;;;;5084643;28;20064;-57
2022/11/29 14:17:37;;;;;;;3.53;3.10;;;;;;;;;;5061087;28;20388;-57
2022/11/29 14:20:21;;;;;;;4.90;4.40;;;;;;;;;;5065410;28;20059;-57
2022/11/29 14:23:06;;;;;;;4.07;3.67;;;;;;;;;;5065973;28;20044;-57
2022/11/29 14:25:33;;;;;;;3.45;3.05;;;;;;;;;;5067936;28;20514;-57
2022/11/29 14:28:01;;;;;;;3.58;3.28;;;;;;;;;;5059613;28;20041;-58
2022/11/29 14:30:39;;;;;;;2.35;2.15;;;;;;;;;;5069001;28;20049;-57
2022/11/29 14:33:15;;;;;;;5.85;4.65;;;;;;;;;;5071222;28;20076;-57
2022/11/29 14:35:45;;;;;;;6.82;6.13;;;;;;;;;;5048051;28;20060;-57
2022/11/29 14:38:14;;;;;;;7.30;6.45;;;;;;;;;;5043838;28;20051;-57
2022/11/29 14:40:40;;;;;;;6.57;5.97;;;;;;;;;;5053418;28;20048;-57
2022/11/29 14:43:29;;;;;;;7.25;6.55;;;;;;;;;;5065756;28;20127;-57
2022/11/29 14:46:27;;;;;;;7.53;6.70;;;;;;;;;;5058576;28;20068;-57
2022/11/29 14:48:58;;;;;;;7.22;6.53;;;;;;;;;;5044782;28;20056;-57
2022/11/29 14:51:25;;;;;;;6.72;6.13;;;;;;;;;;5048743;28;20045;-57
2022/11/29 14:54:11;;;;;;;7.40;6.70;;;;;;;;;;5058707;28;20049;-57
2022/11/29 14:56:37;;;;;;;7.18;6.47;;;;;;;;;;5065397;28;20052;-57
2022/11/29 14:59:22;;;;;;;6.25;5.65;;;;;;;;;;5068221;28;20047;-57
2022/11/29 15:01:48;;;;;;;7.15;6.30;;;;;;;;;;5068160;28;20049;-57
2022/11/29 15:04:15;;;;;;;7.35;6.72;;;;;;;;;;5060731;28;20056;-57
2022/11/29 15:06:42;;;;;;;6.82;5.90;;;;;;;;;;5067791;28;20562;-57
2022/11/29 15:09:19;;;;;;;9.40;6.75;;;;;;;;;;5067252;28;20044;-57
2022/11/29 15:12:01;;;;;;;6.07;5.47;;;;;;;;;;5067851;28;20601;-57
2022/11/29 15:14:44;;;;;;;6.18;5.55;;;;;;;;;;5067656;28;20080;-57
2022/11/29 15:17:25;;;;;;;5.95;5.38;;;;;;;;;;5057068;28;20132;-57
2022/11/29 15:19:51;;;;;;;5.90;5.40;;;;;;;;;;5059580;28;20036;-57
2022/11/29 15:22:19;;;;;;;6.32;5.82;;;;;;;;;;5067542;28;20055;-57
2022/11/29 15:24:56;;;;;;;6.50;5.90;;;;;;;;;;5065730;28;20041;-57